sensor_id;sensor_type;location;lat;lon;timestamp;P1;durP1;ratioP1;P2;durP2;ratioP2
11084;SDS011;5596;46.826;8.650;2022-09-09T00:01:37;2.50;;;1.40;;
11084;SDS011;5596;46.826;8.650;2022-09-09T00:04:16;3.60;;;1.60;;
11084;SDS011;5596;46.826;8.650;2022-09-09T00:06:55;4.00;;;1.87;;
11084;SDS011;5596;46.826;8.650;2022-09-09T00:09:29;1.80;;;1.20;;
11084;SDS011;5596;46.826;8.650;2022-09-09T00:12:00;2.10;;;1.30;;
11084;SDS011;5596;46.826;8.650;2022-09-09T00:14:37;3.43;;;1.30;;
11084;SDS011;5596;46.826;8.650;2022-09-09T00:17:12;3.57;;;1.40;;
11084;SDS011;5596;46.826;8.650;2022-09-09T00:19:47;3.67;;;1.50;;
11084;SDS011;5596;46.826;8.650;2022-09-09T00:22:22;3.40;;;1.40;;
11084;SDS011;5596;46.826;8.650;2022-09-09T00:24:51;4.50;;;1.43;;
11084;SDS011;5596;46.826;8.650;2022-09-09T00:27:22;1.87;;;1.40;;
11084;SDS011;5596;46.826;8.650;2022-09-09T00:29:56;1.80;;;1.20;;
11084;SDS011;5596;46.826;8.650;2022-09-09T00:32:29;2.33;;;1.20;;
11084;SDS011;5596;46.826;8.650;2022-09-09T00:35:02;1.80;;;1.30;;
11084;SDS011;5596;46.826;8.650;2022-09-09T00:37:41;2.30;;;1.30;;
11084;SDS011;5596;46.826;8.650;2022-09-09T00:40:15;1.23;;;1.13;;
11084;SDS011;5596;46.826;8.650;2022-09-09T00:42:50;3.80;;;1.50;;
11084;SDS011;5596;46.826;8.650;2022-09-09T00:45:41;2.63;;;1.30;;
11084;SDS011;5596;46.826;8.650;2022-09-09T00:48:22;1.90;;;1.37;;
11084;SDS011;5596;46.826;8.650;2022-09-09T00:51:03;2.37;;;1.40;;
11084;SDS011;5596;46.826;8.650;2022-09-09T00:53:51;2.13;;;1.30;;
11084;SDS011;5596;46.826;8.650;2022-09-09T00:56:33;1.20;;;1.10;;
11084;SDS011;5596;46.826;8.650;2022-09-09T00:59:12;2.33;;;1.37;;
11084;SDS011;5596;46.826;8.650;2022-09-09T01:02:04;3.03;;;1.30;;
11084;SDS011;5596;46.826;8.650;2022-09-09T01:04:40;1.73;;;1.30;;
11084;SDS011;5596;46.826;8.650;2022-09-09T01:07:09;4.57;;;1.40;;
11084;SDS011;5596;46.826;8.650;2022-09-09T01:09:45;4.00;;;1.47;;
11084;SDS011;5596;46.826;8.650;2022-09-09T01:12:24;4.83;;;1.50;;
11084;SDS011;5596;46.826;8.650;2022-09-09T01:15:00;3.77;;;1.40;;
11084;SDS011;5596;46.826;8.650;2022-09-09T01:17:50;2.90;;;1.37;;
11084;SDS011;5596;46.826;8.650;2022-09-09T01:20:24;3.30;;;1.40;;
11084;SDS011;5596;46.826;8.650;2022-09-09T01:23:05;3.33;;;1.53;;
11084;SDS011;5596;46.826;8.650;2022-09-09T01:26:11;3.13;;;1.67;;
11084;SDS011;5596;46.826;8.650;2022-09-09T01:28:45;2.30;;;1.30;;
11084;SDS011;5596;46.826;8.650;2022-09-09T01:31:16;1.90;;;1.50;;
11084;SDS011;5596;46.826;8.650;2022-09-09T01:33:47;2.27;;;1.40;;
11084;SDS011;5596;46.826;8.650;2022-09-09T01:36:16;3.77;;;1.40;;
11084;SDS011;5596;46.826;8.650;2022-09-09T01:38:50;2.67;;;1.33;;
11084;SDS011;5596;46.826;8.650;2022-09-09T01:41:20;3.77;;;1.73;;
11084;SDS011;5596;46.826;8.650;2022-09-09T01:44:07;3.57;;;1.67;;
11084;SDS011;5596;46.826;8.650;2022-09-09T01:46:37;3.30;;;1.37;;
11084;SDS011;5596;46.826;8.650;2022-09-09T01:49:09;4.40;;;1.67;;
11084;SDS011;5596;46.826;8.650;2022-09-09T01:51:38;3.93;;;1.70;;
11084;SDS011;5596;46.826;8.650;2022-09-09T01:54:10;3.20;;;1.50;;
11084;SDS011;5596;46.826;8.650;2022-09-09T01:56:42;2.57;;;1.50;;
11084;SDS011;5596;46.826;8.650;2022-09-09T02:02:17;1.97;;;1.47;;
11084;SDS011;5596;46.826;8.650;2022-09-09T02:05:00;2.27;;;1.27;;
11084;SDS011;5596;46.826;8.650;2022-09-09T02:07:41;2.27;;;1.30;;
11084;SDS011;5596;46.826;8.650;2022-09-09T02:10:22;4.87;;;1.80;;
11084;SDS011;5596;46.826;8.650;2022-09-09T02:13:08;4.20;;;1.40;;
11084;SDS011;5596;46.826;8.650;2022-09-09T02:15:39;3.80;;;1.50;;
11084;SDS011;5596;46.826;8.650;2022-09-09T02:18:13;3.87;;;2.00;;
11084;SDS011;5596;46.826;8.650;2022-09-09T02:20:45;1.57;;;1.30;;
11084;SDS011;5596;46.826;8.650;2022-09-09T02:23:14;1.40;;;1.30;;
11084;SDS011;5596;46.826;8.650;2022-09-09T02:25:44;4.37;;;1.50;;
11084;SDS011;5596;46.826;8.650;2022-09-09T02:28:21;4.43;;;1.40;;
11084;SDS011;5596;46.826;8.650;2022-09-09T02:30:51;2.83;;;1.43;;
11084;SDS011;5596;46.826;8.650;2022-09-09T02:33:21;4.10;;;1.47;;
11084;SDS011;5596;46.826;8.650;2022-09-09T02:35:53;1.27;;;1.17;;
11084;SDS011;5596;46.826;8.650;2022-09-09T02:38:29;1.57;;;1.40;;
11084;SDS011;5596;46.826;8.650;2022-09-09T02:41:08;4.07;;;1.43;;
11084;SDS011;5596;46.826;8.650;2022-09-09T02:43:37;4.57;;;1.37;;
11084;SDS011;5596;46.826;8.650;2022-09-09T02:46:14;2.27;;;1.40;;
11084;SDS011;5596;46.826;8.650;2022-09-09T02:48:59;3.13;;;1.17;;
11084;SDS011;5596;46.826;8.650;2022-09-09T02:51:35;2.87;;;1.60;;
11084;SDS011;5596;46.826;8.650;2022-09-09T02:54:14;2.07;;;1.33;;
11084;SDS011;5596;46.826;8.650;2022-09-09T02:56:49;1.77;;;1.23;;
11084;SDS011;5596;46.826;8.650;2022-09-09T02:59:24;3.03;;;1.50;;
11084;SDS011;5596;46.826;8.650;2022-09-09T03:01:53;1.40;;;1.30;;
11084;SDS011;5596;46.826;8.650;2022-09-09T03:04:21;2.80;;;1.40;;
11084;SDS011;5596;46.826;8.650;2022-09-09T03:06:50;2.03;;;1.30;;
11084;SDS011;5596;46.826;8.650;2022-09-09T03:09:19;3.30;;;1.70;;
11084;SDS011;5596;46.826;8.650;2022-09-09T03:11:47;4.60;;;1.60;;
11084;SDS011;5596;46.826;8.650;2022-09-09T03:14:15;1.93;;;1.60;;
11084;SDS011;5596;46.826;8.650;2022-09-09T03:16:48;2.90;;;1.60;;
11084;SDS011;5596;46.826;8.650;2022-09-09T03:19:15;2.03;;;1.80;;
11084;SDS011;5596;46.826;8.650;2022-09-09T03:21:44;2.07;;;1.73;;
11084;SDS011;5596;46.826;8.650;2022-09-09T03:24:11;2.73;;;1.70;;
11084;SDS011;5596;46.826;8.650;2022-09-09T03:26:38;2.50;;;1.40;;
11084;SDS011;5596;46.826;8.650;2022-09-09T03:29:08;3.10;;;1.47;;
11084;SDS011;5596;46.826;8.650;2022-09-09T03:31:36;1.80;;;1.50;;
11084;SDS011;5596;46.826;8.650;2022-09-09T03:34:04;6.47;;;1.40;;
11084;SDS011;5596;46.826;8.650;2022-09-09T03:36:33;3.33;;;1.60;;
11084;SDS011;5596;46.826;8.650;2022-09-09T03:39:00;4.07;;;1.60;;
11084;SDS011;5596;46.826;8.650;2022-09-09T03:41:29;3.60;;;1.80;;
11084;SDS011;5596;46.826;8.650;2022-09-09T03:43:59;3.33;;;1.60;;
11084;SDS011;5596;46.826;8.650;2022-09-09T03:46:29;3.13;;;1.57;;
11084;SDS011;5596;46.826;8.650;2022-09-09T03:48:57;3.93;;;1.90;;
11084;SDS011;5596;46.826;8.650;2022-09-09T03:51:26;2.43;;;1.63;;
11084;SDS011;5596;46.826;8.650;2022-09-09T03:53:54;4.47;;;1.90;;
11084;SDS011;5596;46.826;8.650;2022-09-09T03:56:24;3.03;;;1.67;;
11084;SDS011;5596;46.826;8.650;2022-09-09T03:58:55;2.80;;;1.80;;
11084;SDS011;5596;46.826;8.650;2022-09-09T04:01:26;3.93;;;1.70;;
11084;SDS011;5596;46.826;8.650;2022-09-09T04:03:54;3.07;;;1.80;;
11084;SDS011;5596;46.826;8.650;2022-09-09T04:06:24;2.87;;;1.80;;
11084;SDS011;5596;46.826;8.650;2022-09-09T04:08:53;2.63;;;1.70;;
11084;SDS011;5596;46.826;8.650;2022-09-09T04:11:21;8.10;;;1.70;;
11084;SDS011;5596;46.826;8.650;2022-09-09T04:13:51;2.30;;;1.87;;
11084;SDS011;5596;46.826;8.650;2022-09-09T04:16:18;1.70;;;1.50;;
11084;SDS011;5596;46.826;8.650;2022-09-09T04:18:46;1.63;;;1.40;;
11084;SDS011;5596;46.826;8.650;2022-09-09T04:21:15;5.10;;;1.80;;
11084;SDS011;5596;46.826;8.650;2022-09-09T04:23:42;4.73;;;1.77;;
11084;SDS011;5596;46.826;8.650;2022-09-09T04:26:11;4.47;;;1.40;;
11084;SDS011;5596;46.826;8.650;2022-09-09T04:28:38;2.37;;;1.40;;
11084;SDS011;5596;46.826;8.650;2022-09-09T04:31:15;3.67;;;1.57;;
11084;SDS011;5596;46.826;8.650;2022-09-09T04:33:44;4.17;;;1.60;;
11084;SDS011;5596;46.826;8.650;2022-09-09T04:36:11;1.67;;;1.33;;
11084;SDS011;5596;46.826;8.650;2022-09-09T04:38:39;2.17;;;1.70;;
11084;SDS011;5596;46.826;8.650;2022-09-09T04:41:06;2.97;;;1.67;;
11084;SDS011;5596;46.826;8.650;2022-09-09T04:43:38;4.30;;;1.57;;
11084;SDS011;5596;46.826;8.650;2022-09-09T04:46:08;2.27;;;1.77;;
11084;SDS011;5596;46.826;8.650;2022-09-09T04:48:35;2.30;;;1.70;;
11084;SDS011;5596;46.826;8.650;2022-09-09T04:51:05;5.70;;;1.83;;
11084;SDS011;5596;46.826;8.650;2022-09-09T04:53:33;2.40;;;1.63;;
11084;SDS011;5596;46.826;8.650;2022-09-09T04:56:01;2.87;;;1.50;;
11084;SDS011;5596;46.826;8.650;2022-09-09T04:58:31;4.57;;;1.87;;
11084;SDS011;5596;46.826;8.650;2022-09-09T05:01:04;3.73;;;1.80;;
11084;SDS011;5596;46.826;8.650;2022-09-09T05:03:32;2.00;;;1.67;;
11084;SDS011;5596;46.826;8.650;2022-09-09T05:06:04;3.20;;;1.60;;
11084;SDS011;5596;46.826;8.650;2022-09-09T05:08:35;2.93;;;1.77;;
11084;SDS011;5596;46.826;8.650;2022-09-09T05:11:11;3.27;;;1.90;;
11084;SDS011;5596;46.826;8.650;2022-09-09T05:13:41;2.50;;;1.90;;
11084;SDS011;5596;46.826;8.650;2022-09-09T05:16:09;2.77;;;1.90;;
11084;SDS011;5596;46.826;8.650;2022-09-09T05:18:37;3.30;;;1.70;;
11084;SDS011;5596;46.826;8.650;2022-09-09T05:21:05;7.47;;;2.60;;
11084;SDS011;5596;46.826;8.650;2022-09-09T05:23:32;6.17;;;3.00;;
11084;SDS011;5596;46.826;8.650;2022-09-09T05:26:01;3.10;;;1.70;;
11084;SDS011;5596;46.826;8.650;2022-09-09T05:28:29;1.77;;;1.67;;
11084;SDS011;5596;46.826;8.650;2022-09-09T05:30:57;4.37;;;1.60;;
11084;SDS011;5596;46.826;8.650;2022-09-09T05:33:28;3.70;;;1.60;;
11084;SDS011;5596;46.826;8.650;2022-09-09T05:35:56;3.63;;;1.67;;
11084;SDS011;5596;46.826;8.650;2022-09-09T05:38:25;1.47;;;1.37;;
11084;SDS011;5596;46.826;8.650;2022-09-09T05:40:52;1.97;;;1.40;;
11084;SDS011;5596;46.826;8.650;2022-09-09T05:43:21;2.73;;;1.70;;
11084;SDS011;5596;46.826;8.650;2022-09-09T05:45:48;2.77;;;1.43;;
11084;SDS011;5596;46.826;8.650;2022-09-09T05:48:28;7.73;;;1.93;;
11084;SDS011;5596;46.826;8.650;2022-09-09T05:50:56;5.57;;;1.53;;
11084;SDS011;5596;46.826;8.650;2022-09-09T05:53:23;2.83;;;1.83;;
11084;SDS011;5596;46.826;8.650;2022-09-09T05:55:50;2.77;;;1.60;;
11084;SDS011;5596;46.826;8.650;2022-09-09T05:58:26;2.30;;;1.30;;
11084;SDS011;5596;46.826;8.650;2022-09-09T06:00:59;3.97;;;1.50;;
11084;SDS011;5596;46.826;8.650;2022-09-09T06:03:28;3.83;;;1.43;;
11084;SDS011;5596;46.826;8.650;2022-09-09T06:05:59;5.10;;;1.70;;
11084;SDS011;5596;46.826;8.650;2022-09-09T06:08:27;2.40;;;1.47;;
11084;SDS011;5596;46.826;8.650;2022-09-09T06:11:00;3.53;;;2.00;;
11084;SDS011;5596;46.826;8.650;2022-09-09T06:13:29;2.90;;;1.90;;
11084;SDS011;5596;46.826;8.650;2022-09-09T06:15:57;7.23;;;1.80;;
11084;SDS011;5596;46.826;8.650;2022-09-09T06:18:26;1.90;;;1.53;;
11084;SDS011;5596;46.826;8.650;2022-09-09T06:20:59;2.37;;;1.57;;
11084;SDS011;5596;46.826;8.650;2022-09-09T06:23:30;3.80;;;1.60;;
11084;SDS011;5596;46.826;8.650;2022-09-09T06:26:01;5.20;;;1.60;;
11084;SDS011;5596;46.826;8.650;2022-09-09T06:28:31;4.90;;;1.90;;
11084;SDS011;5596;46.826;8.650;2022-09-09T06:30:58;3.80;;;1.80;;
11084;SDS011;5596;46.826;8.650;2022-09-09T06:33:30;2.07;;;1.80;;
11084;SDS011;5596;46.826;8.650;2022-09-09T06:36:02;3.93;;;2.20;;
11084;SDS011;5596;46.826;8.650;2022-09-09T06:38:31;2.13;;;1.90;;
11084;SDS011;5596;46.826;8.650;2022-09-09T06:40:59;4.90;;;1.80;;
11084;SDS011;5596;46.826;8.650;2022-09-09T06:43:27;4.37;;;2.10;;
11084;SDS011;5596;46.826;8.650;2022-09-09T06:45:56;3.43;;;1.93;;
11084;SDS011;5596;46.826;8.650;2022-09-09T06:48:24;3.67;;;1.90;;
11084;SDS011;5596;46.826;8.650;2022-09-09T06:50:59;6.27;;;1.97;;
11084;SDS011;5596;46.826;8.650;2022-09-09T06:53:30;1.97;;;1.77;;
11084;SDS011;5596;46.826;8.650;2022-09-09T06:55:59;6.97;;;2.50;;
11084;SDS011;5596;46.826;8.650;2022-09-09T06:58:28;4.73;;;2.30;;
11084;SDS011;5596;46.826;8.650;2022-09-09T07:01:03;4.17;;;1.80;;
11084;SDS011;5596;46.826;8.650;2022-09-09T07:03:32;2.33;;;1.83;;
11084;SDS011;5596;46.826;8.650;2022-09-09T07:06:02;2.57;;;1.60;;
11084;SDS011;5596;46.826;8.650;2022-09-09T07:08:29;2.13;;;1.50;;
11084;SDS011;5596;46.826;8.650;2022-09-09T07:11:01;3.63;;;1.73;;
11084;SDS011;5596;46.826;8.650;2022-09-09T07:13:34;2.97;;;1.70;;
11084;SDS011;5596;46.826;8.650;2022-09-09T07:16:03;3.53;;;1.87;;
11084;SDS011;5596;46.826;8.650;2022-09-09T07:18:32;1.77;;;1.60;;
11084;SDS011;5596;46.826;8.650;2022-09-09T07:21:00;4.63;;;1.70;;
11084;SDS011;5596;46.826;8.650;2022-09-09T07:23:30;3.00;;;2.10;;
11084;SDS011;5596;46.826;8.650;2022-09-09T07:25:57;3.67;;;2.17;;
11084;SDS011;5596;46.826;8.650;2022-09-09T07:28:25;8.03;;;2.60;;
11084;SDS011;5596;46.826;8.650;2022-09-09T07:30:54;3.67;;;2.10;;
11084;SDS011;5596;46.826;8.650;2022-09-09T07:33:24;5.27;;;2.20;;
11084;SDS011;5596;46.826;8.650;2022-09-09T07:35:51;4.70;;;1.97;;
11084;SDS011;5596;46.826;8.650;2022-09-09T07:38:21;3.83;;;1.70;;
11084;SDS011;5596;46.826;8.650;2022-09-09T07:40:48;2.40;;;1.70;;
11084;SDS011;5596;46.826;8.650;2022-09-09T07:43:16;3.03;;;1.80;;
11084;SDS011;5596;46.826;8.650;2022-09-09T07:45:44;2.90;;;1.70;;
11084;SDS011;5596;46.826;8.650;2022-09-09T07:48:12;2.67;;;1.90;;
11084;SDS011;5596;46.826;8.650;2022-09-09T07:50:39;4.77;;;2.50;;
11084;SDS011;5596;46.826;8.650;2022-09-09T07:53:07;2.50;;;1.67;;
11084;SDS011;5596;46.826;8.650;2022-09-09T07:55:35;2.90;;;1.70;;
11084;SDS011;5596;46.826;8.650;2022-09-09T07:58:03;3.80;;;1.60;;
11084;SDS011;5596;46.826;8.650;2022-09-09T08:00:30;3.90;;;1.80;;
11084;SDS011;5596;46.826;8.650;2022-09-09T08:02:59;3.90;;;1.73;;
11084;SDS011;5596;46.826;8.650;2022-09-09T08:05:27;3.23;;;1.80;;
11084;SDS011;5596;46.826;8.650;2022-09-09T08:07:54;3.17;;;1.60;;
11084;SDS011;5596;46.826;8.650;2022-09-09T08:10:22;3.53;;;1.90;;
11084;SDS011;5596;46.826;8.650;2022-09-09T08:12:52;3.70;;;1.77;;
11084;SDS011;5596;46.826;8.650;2022-09-09T08:15:20;5.43;;;1.90;;
11084;SDS011;5596;46.826;8.650;2022-09-09T08:17:47;5.13;;;2.00;;
11084;SDS011;5596;46.826;8.650;2022-09-09T08:20:14;3.97;;;2.13;;
11084;SDS011;5596;46.826;8.650;2022-09-09T08:22:41;1.77;;;1.67;;
11084;SDS011;5596;46.826;8.650;2022-09-09T08:25:09;5.43;;;1.95;;
11084;SDS011;5596;46.826;8.650;2022-09-09T08:27:37;3.65;;;1.83;;
11084;SDS011;5596;46.826;8.650;2022-09-09T08:30:07;3.50;;;2.00;;
11084;SDS011;5596;46.826;8.650;2022-09-09T08:32:35;6.50;;;1.80;;
11084;SDS011;5596;46.826;8.650;2022-09-09T08:35:03;4.07;;;1.77;;
11084;SDS011;5596;46.826;8.650;2022-09-09T08:37:30;9.10;;;1.92;;
11084;SDS011;5596;46.826;8.650;2022-09-09T08:39:58;2.85;;;1.52;;
11084;SDS011;5596;46.826;8.650;2022-09-09T08:42:31;2.22;;;1.73;;
11084;SDS011;5596;46.826;8.650;2022-09-09T08:48:08;2.63;;;1.67;;
11084;SDS011;5596;46.826;8.650;2022-09-09T08:50:49;2.65;;;1.50;;
11084;SDS011;5596;46.826;8.650;2022-09-09T08:53:26;2.08;;;1.25;;
11084;SDS011;5596;46.826;8.650;2022-09-09T08:55:56;2.72;;;1.52;;
11084;SDS011;5596;46.826;8.650;2022-09-09T08:58:47;1.83;;;1.40;;
11084;SDS011;5596;46.826;8.650;2022-09-09T09:04:25;2.72;;;1.60;;
11084;SDS011;5596;46.826;8.650;2022-09-09T09:07:03;4.03;;;1.60;;
11084;SDS011;5596;46.826;8.650;2022-09-09T09:09:41;4.60;;;1.70;;
11084;SDS011;5596;46.826;8.650;2022-09-09T09:12:19;4.70;;;1.60;;
11084;SDS011;5596;46.826;8.650;2022-09-09T09:14:49;3.72;;;1.60;;
11084;SDS011;5596;46.826;8.650;2022-09-09T09:17:19;5.55;;;1.70;;
11084;SDS011;5596;46.826;8.650;2022-09-09T09:19:50;3.35;;;1.88;;
11084;SDS011;5596;46.826;8.650;2022-09-09T09:22:18;3.20;;;1.52;;
11084;SDS011;5596;46.826;8.650;2022-09-09T09:24:51;3.00;;;1.55;;
11084;SDS011;5596;46.826;8.650;2022-09-09T09:27:26;2.60;;;1.45;;
11084;SDS011;5596;46.826;8.650;2022-09-09T09:29:59;2.22;;;1.30;;
11084;SDS011;5596;46.826;8.650;2022-09-09T09:32:33;1.88;;;1.45;;
11084;SDS011;5596;46.826;8.650;2022-09-09T09:35:06;1.73;;;1.20;;
11084;SDS011;5596;46.826;8.650;2022-09-09T09:37:40;1.73;;;1.40;;
11084;SDS011;5596;46.826;8.650;2022-09-09T09:40:10;2.15;;;1.40;;
11084;SDS011;5596;46.826;8.650;2022-09-09T09:42:47;1.55;;;1.30;;
11084;SDS011;5596;46.826;8.650;2022-09-09T09:45:18;1.90;;;1.60;;
11084;SDS011;5596;46.826;8.650;2022-09-09T09:48:01;2.47;;;1.50;;
11084;SDS011;5596;46.826;8.650;2022-09-09T09:50:32;2.88;;;1.15;;
11084;SDS011;5596;46.826;8.650;2022-09-09T09:53:01;1.60;;;1.20;;
11084;SDS011;5596;46.826;8.650;2022-09-09T09:55:35;6.10;;;1.63;;
11084;SDS011;5596;46.826;8.650;2022-09-09T09:58:03;2.45;;;1.30;;
11084;SDS011;5596;46.826;8.650;2022-09-09T10:00:33;4.50;;;1.58;;
11084;SDS011;5596;46.826;8.650;2022-09-09T10:03:14;4.60;;;1.73;;
11084;SDS011;5596;46.826;8.650;2022-09-09T10:05:50;4.07;;;1.20;;
11084;SDS011;5596;46.826;8.650;2022-09-09T10:08:17;3.05;;;1.60;;
11084;SDS011;5596;46.826;8.650;2022-09-09T10:10:48;4.32;;;1.05;;
11084;SDS011;5596;46.826;8.650;2022-09-09T10:13:25;1.83;;;1.20;;
11084;SDS011;5596;46.826;8.650;2022-09-09T10:16:02;2.40;;;1.10;;
11084;SDS011;5596;46.826;8.650;2022-09-09T10:18:49;4.57;;;1.45;;
11084;SDS011;5596;46.826;8.650;2022-09-09T10:21:31;2.67;;;1.20;;
11084;SDS011;5596;46.826;8.650;2022-09-09T10:24:15;2.05;;;1.30;;
11084;SDS011;5596;46.826;8.650;2022-09-09T10:27:03;2.08;;;1.27;;
11084;SDS011;5596;46.826;8.650;2022-09-09T10:29:50;1.88;;;1.20;;
11084;SDS011;5596;46.826;8.650;2022-09-09T10:32:36;3.42;;;1.15;;
11084;SDS011;5596;46.826;8.650;2022-09-09T10:35:12;1.98;;;1.13;;
11084;SDS011;5596;46.826;8.650;2022-09-09T10:38:00;1.63;;;1.20;;
11084;SDS011;5596;46.826;8.650;2022-09-09T10:40:41;1.42;;;1.10;;
11084;SDS011;5596;46.826;8.650;2022-09-09T10:43:20;1.45;;;1.10;;
11084;SDS011;5596;46.826;8.650;2022-09-09T10:46:01;2.35;;;1.42;;
11084;SDS011;5596;46.826;8.650;2022-09-09T10:48:41;2.58;;;1.20;;
11084;SDS011;5596;46.826;8.650;2022-09-09T10:51:25;1.92;;;1.13;;
11084;SDS011;5596;46.826;8.650;2022-09-09T10:54:02;2.65;;;1.20;;
11084;SDS011;5596;46.826;8.650;2022-09-09T10:56:40;2.65;;;1.00;;
11084;SDS011;5596;46.826;8.650;2022-09-09T10:59:11;2.38;;;1.20;;
11084;SDS011;5596;46.826;8.650;2022-09-09T11:01:43;1.48;;;1.00;;
11084;SDS011;5596;46.826;8.650;2022-09-09T11:04:15;2.55;;;1.10;;
11084;SDS011;5596;46.826;8.650;2022-09-09T11:06:50;1.20;;;1.10;;
11084;SDS011;5596;46.826;8.650;2022-09-09T11:09:22;3.55;;;1.30;;
11084;SDS011;5596;46.826;8.650;2022-09-09T11:11:52;2.75;;;1.38;;
11084;SDS011;5596;46.826;8.650;2022-09-09T11:14:22;2.08;;;1.33;;
11084;SDS011;5596;46.826;8.650;2022-09-09T11:16:53;2.33;;;1.38;;
11084;SDS011;5596;46.826;8.650;2022-09-09T11:19:27;3.30;;;1.55;;
11084;SDS011;5596;46.826;8.650;2022-09-09T11:22:01;1.90;;;1.10;;
11084;SDS011;5596;46.826;8.650;2022-09-09T11:24:33;3.28;;;1.20;;
11084;SDS011;5596;46.826;8.650;2022-09-09T11:27:08;1.98;;;1.30;;
11084;SDS011;5596;46.826;8.650;2022-09-09T11:29:45;3.00;;;1.17;;
11084;SDS011;5596;46.826;8.650;2022-09-09T11:32:40;2.42;;;1.20;;
11084;SDS011;5596;46.826;8.650;2022-09-09T11:35:24;1.40;;;1.23;;
11084;SDS011;5596;46.826;8.650;2022-09-09T11:38:08;3.22;;;1.40;;
11084;SDS011;5596;46.826;8.650;2022-09-09T11:40:45;4.25;;;1.30;;
11084;SDS011;5596;46.826;8.650;2022-09-09T11:43:13;4.90;;;1.35;;
11084;SDS011;5596;46.826;8.650;2022-09-09T11:45:49;2.22;;;1.10;;
11084;SDS011;5596;46.826;8.650;2022-09-09T11:48:25;3.50;;;1.40;;
11084;SDS011;5596;46.826;8.650;2022-09-09T11:51:00;2.53;;;1.25;;
11084;SDS011;5596;46.826;8.650;2022-09-09T11:53:34;1.63;;;1.30;;
11084;SDS011;5596;46.826;8.650;2022-09-09T11:56:03;2.88;;;1.60;;
11084;SDS011;5596;46.826;8.650;2022-09-09T11:58:37;2.38;;;1.25;;
11084;SDS011;5596;46.826;8.650;2022-09-09T12:01:14;3.83;;;1.20;;
11084;SDS011;5596;46.826;8.650;2022-09-09T12:03:43;2.72;;;1.20;;
11084;SDS011;5596;46.826;8.650;2022-09-09T12:06:15;2.85;;;1.35;;
11084;SDS011;5596;46.826;8.650;2022-09-09T12:08:48;1.27;;;1.08;;
11084;SDS011;5596;46.826;8.650;2022-09-09T12:11:25;1.60;;;1.23;;
11084;SDS011;5596;46.826;8.650;2022-09-09T12:13:54;2.75;;;1.27;;
11084;SDS011;5596;46.826;8.650;2022-09-09T12:16:28;1.40;;;1.30;;
11084;SDS011;5596;46.826;8.650;2022-09-09T12:19:05;2.83;;;1.10;;
11084;SDS011;5596;46.826;8.650;2022-09-09T12:21:42;1.38;;;1.10;;
11084;SDS011;5596;46.826;8.650;2022-09-09T12:24:18;1.60;;;1.30;;
11084;SDS011;5596;46.826;8.650;2022-09-09T12:26:55;1.98;;;1.23;;
11084;SDS011;5596;46.826;8.650;2022-09-09T12:29:33;1.55;;;1.10;;
11084;SDS011;5596;46.826;8.650;2022-09-09T12:32:09;2.75;;;1.40;;
11084;SDS011;5596;46.826;8.650;2022-09-09T12:34:39;1.83;;;1.48;;
11084;SDS011;5596;46.826;8.650;2022-09-09T12:37:15;1.98;;;1.30;;
11084;SDS011;5596;46.826;8.650;2022-09-09T12:39:51;1.30;;;1.20;;
11084;SDS011;5596;46.826;8.650;2022-09-09T12:42:22;1.88;;;1.27;;
11084;SDS011;5596;46.826;8.650;2022-09-09T12:44:50;2.25;;;1.38;;
11084;SDS011;5596;46.826;8.650;2022-09-09T12:47:22;1.58;;;1.45;;
11084;SDS011;5596;46.826;8.650;2022-09-09T12:49:55;2.38;;;1.40;;
11084;SDS011;5596;46.826;8.650;2022-09-09T12:52:24;2.95;;;1.40;;
11084;SDS011;5596;46.826;8.650;2022-09-09T12:54:56;2.75;;;1.35;;
11084;SDS011;5596;46.826;8.650;2022-09-09T12:57:26;1.80;;;1.30;;
11084;SDS011;5596;46.826;8.650;2022-09-09T13:00:04;2.22;;;1.20;;
11084;SDS011;5596;46.826;8.650;2022-09-09T13:02:36;1.58;;;1.20;;
11084;SDS011;5596;46.826;8.650;2022-09-09T13:05:14;2.28;;;1.30;;
11084;SDS011;5596;46.826;8.650;2022-09-09T13:07:43;2.30;;;1.20;;
11084;SDS011;5596;46.826;8.650;2022-09-09T13:10:12;1.95;;;1.30;;
11084;SDS011;5596;46.826;8.650;2022-09-09T13:12:40;1.77;;;1.25;;
11084;SDS011;5596;46.826;8.650;2022-09-09T13:15:12;3.05;;;1.83;;
11084;SDS011;5596;46.826;8.650;2022-09-09T13:17:49;2.65;;;1.30;;
11084;SDS011;5596;46.826;8.650;2022-09-09T13:20:19;3.97;;;1.50;;
11084;SDS011;5596;46.826;8.650;2022-09-09T13:22:48;3.22;;;1.55;;
11084;SDS011;5596;46.826;8.650;2022-09-09T13:25:20;2.40;;;1.42;;
11084;SDS011;5596;46.826;8.650;2022-09-09T13:27:51;2.10;;;1.45;;
11084;SDS011;5596;46.826;8.650;2022-09-09T13:30:21;2.50;;;1.50;;
11084;SDS011;5596;46.826;8.650;2022-09-09T13:33:00;2.83;;;1.40;;
11084;SDS011;5596;46.826;8.650;2022-09-09T13:35:29;1.80;;;1.50;;
11084;SDS011;5596;46.826;8.650;2022-09-09T13:37:56;1.95;;;1.40;;
11084;SDS011;5596;46.826;8.650;2022-09-09T13:40:26;2.95;;;1.40;;
11084;SDS011;5596;46.826;8.650;2022-09-09T13:42:56;2.53;;;1.50;;
11084;SDS011;5596;46.826;8.650;2022-09-09T13:45:24;3.08;;;1.63;;
11084;SDS011;5596;46.826;8.650;2022-09-09T13:47:53;3.03;;;1.33;;
11084;SDS011;5596;46.826;8.650;2022-09-09T13:50:22;1.73;;;1.60;;
11084;SDS011;5596;46.826;8.650;2022-09-09T13:52:51;2.53;;;1.50;;
11084;SDS011;5596;46.826;8.650;2022-09-09T13:55:23;3.28;;;1.70;;
11084;SDS011;5596;46.826;8.650;2022-09-09T13:57:53;1.50;;;1.40;;
11084;SDS011;5596;46.826;8.650;2022-09-09T14:00:21;3.92;;;1.40;;
11084;SDS011;5596;46.826;8.650;2022-09-09T14:02:49;2.63;;;1.60;;
11084;SDS011;5596;46.826;8.650;2022-09-09T14:05:17;3.13;;;1.60;;
11084;SDS011;5596;46.826;8.650;2022-09-09T14:07:46;2.70;;;1.70;;
11084;SDS011;5596;46.826;8.650;2022-09-09T14:10:13;2.33;;;1.30;;
11084;SDS011;5596;46.826;8.650;2022-09-09T14:12:40;1.80;;;1.30;;
11084;SDS011;5596;46.826;8.650;2022-09-09T14:15:09;2.50;;;1.77;;
11084;SDS011;5596;46.826;8.650;2022-09-09T14:17:38;1.80;;;1.42;;
11084;SDS011;5596;46.826;8.650;2022-09-09T14:20:05;1.50;;;1.38;;
11084;SDS011;5596;46.826;8.650;2022-09-09T14:22:34;1.98;;;1.40;;
11084;SDS011;5596;46.826;8.650;2022-09-09T14:25:02;2.20;;;1.73;;
11084;SDS011;5596;46.826;8.650;2022-09-09T14:27:30;3.17;;;1.42;;
11084;SDS011;5596;46.826;8.650;2022-09-09T14:29:57;2.72;;;1.52;;
11084;SDS011;5596;46.826;8.650;2022-09-09T14:32:27;2.00;;;1.70;;
11084;SDS011;5596;46.826;8.650;2022-09-09T14:34:54;4.50;;;2.45;;
11084;SDS011;5596;46.826;8.650;2022-09-09T14:37:21;4.80;;;1.88;;
11084;SDS011;5596;46.826;8.650;2022-09-09T14:39:49;2.17;;;1.63;;
11084;SDS011;5596;46.826;8.650;2022-09-09T14:42:16;2.33;;;1.47;;
11084;SDS011;5596;46.826;8.650;2022-09-09T14:44:44;1.50;;;1.40;;
11084;SDS011;5596;46.826;8.650;2022-09-09T14:47:11;1.73;;;1.53;;
11084;SDS011;5596;46.826;8.650;2022-09-09T14:49:39;5.90;;;2.10;;
11084;SDS011;5596;46.826;8.650;2022-09-09T14:52:06;2.63;;;1.73;;
11084;SDS011;5596;46.826;8.650;2022-09-09T14:54:34;2.17;;;1.70;;
11084;SDS011;5596;46.826;8.650;2022-09-09T14:57:01;2.57;;;1.80;;
11084;SDS011;5596;46.826;8.650;2022-09-09T14:59:28;1.63;;;1.53;;
11084;SDS011;5596;46.826;8.650;2022-09-09T15:01:55;1.70;;;1.40;;
11084;SDS011;5596;46.826;8.650;2022-09-09T15:04:22;3.20;;;1.77;;
11084;SDS011;5596;46.826;8.650;2022-09-09T15:06:50;2.10;;;1.50;;
11084;SDS011;5596;46.826;8.650;2022-09-09T15:09:19;4.33;;;1.90;;
11084;SDS011;5596;46.826;8.650;2022-09-09T15:11:46;4.23;;;2.07;;
11084;SDS011;5596;46.826;8.650;2022-09-09T15:14:13;2.97;;;1.80;;
11084;SDS011;5596;46.826;8.650;2022-09-09T15:16:40;4.97;;;2.00;;
11084;SDS011;5596;46.826;8.650;2022-09-09T15:19:07;2.73;;;2.00;;
11084;SDS011;5596;46.826;8.650;2022-09-09T15:21:35;3.17;;;1.80;;
11084;SDS011;5596;46.826;8.650;2022-09-09T15:24:05;4.13;;;2.03;;
11084;SDS011;5596;46.826;8.650;2022-09-09T15:26:33;2.20;;;1.77;;
11084;SDS011;5596;46.826;8.650;2022-09-09T15:29:03;3.20;;;1.90;;
11084;SDS011;5596;46.826;8.650;2022-09-09T15:31:30;3.40;;;1.80;;
11084;SDS011;5596;46.826;8.650;2022-09-09T15:33:59;2.73;;;1.80;;
11084;SDS011;5596;46.826;8.650;2022-09-09T15:36:27;2.13;;;1.93;;
11084;SDS011;5596;46.826;8.650;2022-09-09T15:38:57;3.17;;;2.10;;